Time;durP1;ratioP1;P1;durP2;ratioP2;P2;SDS_P1;SDS_P2;PMS_P1;PMS_P2;Temp;Humidity;BMP_temperature;BMP_pressure;BME280_temperature;BME280_humidity;BME280_pressure;Samples;Min_cycle;Max_cycle;Signal;HPM_P1;HPM_P2
2022/01/27 08:32:02;;;;;;;9.18;5.85;;;7.80;95.00;;;;;;5071251;28;20387;-59
2022/01/27 08:34:35;;;;;;;10.13;5.72;;;7.80;95.10;;;;;;5065180;28;20059;-57
2022/01/27 08:37:02;;;;;;;10.65;5.43;;;7.90;95.00;;;;;;5059928;28;20037;-56
2022/01/27 08:39:29;;;;;;;8.50;4.95;;;8.00;94.90;;;;;;5049771;28;20037;-59
2022/01/27 08:41:56;;;;;;;10.57;5.10;;;8.00;94.90;;;;;;5048650;28;20045;-58
2022/01/27 08:44:22;;;;;;;7.88;4.90;;;8.10;94.70;;;;;;5048219;28;20041;-60
2022/01/27 08:46:49;;;;;;;9.25;4.90;;;8.20;94.60;;;;;;5081915;28;20041;-56
2022/01/27 08:49:19;;;;;;;7.03;4.30;;;8.20;94.60;;;;;;5050183;28;20045;-52
2022/01/27 08:51:45;;;;;;;7.97;4.57;;;8.30;94.50;;;;;;5043828;28;20087;-60
2022/01/27 08:54:12;;;;;;;7.47;4.43;;;8.30;94.50;;;;;;5049336;28;20045;-57
2022/01/27 08:56:39;;;;;;;8.63;4.82;;;8.40;94.50;;;;;;5049964;28;20473;-54
2022/01/27 08:59:06;;;;;;;7.72;4.47;;;8.40;94.40;;;;;;5043386;28;20033;-53
2022/01/27 09:01:33;;;;;;;7.75;4.35;;;8.40;94.40;;;;;;5043383;28;20049;-56
2022/01/27 09:04:00;;;;;;;10.27;4.68;;;8.50;94.30;;;;;;5043637;28;20037;-58
2022/01/27 09:06:30;;;;;;;7.20;5.05;;;8.50;94.40;;;;;;5049879;28;20045;-56
2022/01/27 09:08:57;;;;;;;7.07;4.70;;;8.50;94.40;;;;;;5049785;28;20068;-56
2022/01/27 09:11:23;;;;;;;7.95;3.95;;;8.50;94.40;;;;;;5049573;28;20484;-58
2022/01/27 09:13:54;;;;;;;6.30;4.15;;;8.60;94.40;;;;;;5043643;28;20045;-58
2022/01/27 09:16:23;;;;;;;9.85;4.20;;;8.50;94.50;;;;;;5049567;28;20033;-62
2022/01/27 09:19:04;;;;;;;10.70;4.40;;;8.60;94.40;;;;;;5048787;28;20489;-55
2022/01/27 09:21:41;;;;;;;8.43;4.75;;;8.60;94.40;;;;;;5049520;28;20396;-57
2022/01/27 09:24:14;;;;;;;7.10;4.10;;;8.60;94.50;;;;;;5049509;28;20056;-58
2022/01/27 09:26:50;;;;;;;5.38;3.70;;;8.60;94.50;;;;;;5048586;28;20049;-57
2022/01/27 09:29:17;;;;;;;7.78;4.15;;;8.70;94.50;;;;;;5049676;28;20045;-58
2022/01/27 09:31:44;;;;;;;6.50;4.22;;;8.70;94.50;;;;;;5048109;28;20045;-54
2022/01/27 09:34:30;;;;;;;12.05;4.10;;;8.70;94.50;;;;;;5049237;28;20038;-54
2022/01/27 09:37:01;;;;;;;11.00;4.13;;;8.70;94.50;;;;;;5049200;28;20041;-57
2022/01/27 09:39:28;;;;;;;7.90;4.65;;;8.70;94.50;;;;;;5049249;28;20049;-55
2022/01/27 09:41:55;;;;;;;27.40;4.82;;;8.80;94.60;;;;;;5043723;28;20038;-54
2022/01/27 09:44:24;;;;;;;8.45;4.03;;;8.80;94.60;;;;;;5034939;28;20034;-59
2022/01/27 09:46:52;;;;;;;10.10;4.10;;;8.80;94.50;;;;;;5035408;28;20037;-60
2022/01/27 09:49:30;;;;;;;7.40;4.40;;;8.80;94.60;;;;;;5034895;28;20491;-59
2022/01/27 09:51:56;;;;;;;9.23;3.70;;;8.90;94.50;;;;;;5034482;28;20079;-57
2022/01/27 09:54:23;;;;;;;7.63;4.10;;;8.90;94.50;;;;;;5036291;28;20041;-56
2022/01/27 09:56:52;;;;;;;7.70;4.18;;;8.90;94.60;;;;;;5037479;28;20049;-58
2022/01/27 09:59:18;;;;;;;9.30;4.13;;;8.90;94.60;;;;;;5037996;28;20473;-59
2022/01/27 10:01:45;;;;;;;6.93;3.65;;;8.90;94.60;;;;;;5037515;28;20404;-56
2022/01/27 10:04:12;;;;;;;6.95;4.00;;;8.90;94.60;;;;;;5036608;28;20087;-57
2022/01/27 10:06:40;;;;;;;6.25;3.75;;;8.90;94.60;;;;;;5035333;28;20119;-53
2022/01/27 10:09:07;;;;;;;7.63;4.43;;;9.00;94.70;;;;;;5035584;28;20416;-55
2022/01/27 10:11:34;;;;;;;7.93;3.85;;;8.90;94.70;;;;;;5034273;28;20049;-58
2022/01/27 10:14:01;;;;;;;8.23;3.83;;;9.00;94.70;;;;;;5035291;28;20401;-55
2022/01/27 10:16:28;;;;;;;9.15;4.32;;;9.00;94.70;;;;;;5035316;28;20037;-58
2022/01/27 10:18:55;;;;;;;7.60;3.95;;;9.00;94.70;;;;;;5033904;28;20052;-59
2022/01/27 10:21:23;;;;;;;8.73;4.25;;;9.00;94.60;;;;;;5035209;28;20041;-58
2022/01/27 10:23:52;;;;;;;7.85;4.28;;;9.10;94.60;;;;;;5035092;28;20500;-57
2022/01/27 10:26:23;;;;;;;6.85;4.07;;;9.10;94.60;;;;;;5035031;28;20072;-53
2022/01/27 10:28:59;;;;;;;5.97;3.80;;;9.10;94.60;;;;;;5034270;28;20045;-57
2022/01/27 10:31:28;;;;;;;10.32;4.38;;;9.20;94.60;;;;;;5034844;28;20056;-59
2022/01/27 10:33:58;;;;;;;6.97;3.78;;;9.10;94.60;;;;;;5035147;28;20099;-57
2022/01/27 10:36:25;;;;;;;6.82;3.47;;;9.20;94.60;;;;;;5034105;28;20045;-60
2022/01/27 10:38:52;;;;;;;6.20;3.75;;;9.20;94.60;;;;;;5035001;28;20493;-61
2022/01/27 10:41:20;;;;;;;10.18;4.47;;;9.20;94.50;;;;;;5033946;28;20054;-59
2022/01/27 10:43:47;;;;;;;7.47;3.80;;;9.20;94.50;;;;;;5033651;28;20041;-59
2022/01/27 10:48:41;;;;;;;10.30;3.95;;;9.30;94.40;;;;;;5034379;28;20090;-59
2022/01/27 10:51:14;;;;;;;7.30;3.65;;;9.40;94.40;;;;;;5034733;28;20049;-59
2022/01/27 10:53:41;;;;;;;9.20;3.58;;;9.40;94.30;;;;;;5033645;28;20125;-55
2022/01/27 10:56:08;;;;;;;10.18;3.85;;;9.40;94.30;;;;;;5033827;28;20563;-54
2022/01/27 10:58:35;;;;;;;7.38;3.85;;;9.50;94.30;;;;;;5034397;28;20116;-57
2022/01/27 11:01:03;;;;;;;7.75;3.67;;;9.50;94.30;;;;;;5034452;28;20037;-53
2022/01/27 11:03:30;;;;;;;7.07;4.00;;;9.50;94.20;;;;;;5033560;28;20030;-56
2022/01/27 11:05:59;;;;;;;8.32;3.65;;;9.50;94.10;;;;;;5034088;28;20038;-55
2022/01/27 11:08:26;;;;;;;7.22;4.03;;;9.60;94.20;;;;;;5033455;28;20043;-53
2022/01/27 11:10:53;;;;;;;9.02;4.43;;;9.60;94.10;;;;;;5034418;28;20049;-57
2022/01/27 11:13:22;;;;;;;9.27;4.15;;;9.70;94.10;;;;;;5034336;28;20141;-58
2022/01/27 11:15:49;;;;;;;8.15;4.35;;;9.80;94.00;;;;;;5033172;28;20053;-59
2022/01/27 11:18:17;;;;;;;6.13;3.08;;;9.80;93.90;;;;;;5033919;28;20052;-55
2022/01/27 11:25:51;;;;;;;7.97;3.42;;;10.00;93.60;;;;;;5033714;28;20045;-57
2022/01/27 11:28:18;;;;;;;10.45;4.15;;;10.10;93.60;;;;;;5033407;28;20033;-57
2022/01/27 11:30:45;;;;;;;5.68;3.80;;;10.10;93.40;;;;;;5015830;28;20457;-60
2022/01/27 11:33:16;;;;;;;5.32;3.58;;;10.10;93.40;;;;;;5031578;28;20060;-54
2022/01/27 11:35:56;;;;;;;7.70;3.67;;;10.20;93.30;;;;;;5033613;28;20124;-57
2022/01/27 11:38:23;;;;;;;8.15;4.18;;;10.30;93.20;;;;;;5033767;28;20042;-56
2022/01/27 11:40:49;;;;;;;4.97;3.33;;;10.40;93.10;;;;;;5032051;28;20050;-58
2022/01/27 11:43:16;;;;;;;5.68;3.38;;;10.50;93.00;;;;;;5033658;28;20048;-58
2022/01/27 11:45:43;;;;;;;8.32;3.58;;;10.50;92.90;;;;;;5033355;28;20065;-53
2022/01/27 11:48:11;;;;;;;6.00;3.00;;;10.60;92.90;;;;;;5033167;28;20095;-56
2022/01/27 11:50:39;;;;;;;6.22;3.28;;;10.60;92.70;;;;;;5033288;28;20091;-55
2022/01/27 11:53:06;;;;;;;7.07;4.13;;;10.70;92.70;;;;;;5032663;28;20038;-56
2022/01/27 11:55:32;;;;;;;8.30;3.55;;;10.80;92.60;;;;;;5033296;28;20041;-55
2022/01/27 11:57:59;;;;;;;6.57;3.40;;;10.80;92.60;;;;;;5033114;28;20037;-56
2022/01/27 12:00:26;;;;;;;6.80;3.17;;;10.70;92.60;;;;;;5031850;28;20045;-58
2022/01/27 12:02:53;;;;;;;7.43;3.20;;;10.70;92.70;;;;;;5031969;28;20048;-57
2022/01/27 12:05:20;;;;;;;7.25;3.40;;;10.80;92.70;;;;;;5033023;28;20055;-56
2022/01/27 12:07:46;;;;;;;8.45;3.45;;;10.80;92.70;;;;;;5032961;28;20049;-56
2022/01/27 12:10:13;;;;;;;4.88;3.50;;;10.80;92.70;;;;;;5033019;28;20037;-54
2022/01/27 12:12:40;;;;;;;5.93;3.20;;;10.80;92.60;;;;;;5033031;28;20033;-56
2022/01/27 12:15:09;;;;;;;5.95;3.20;;;10.90;92.50;;;;;;5031507;28;20753;-55
2022/01/27 12:17:36;;;;;;;8.35;3.38;;;10.90;92.50;;;;;;5032541;28;20099;-57
2022/01/27 12:20:03;;;;;;;4.43;2.70;;;11.00;92.50;;;;;;5032627;28;20120;-55
2022/01/27 12:22:29;;;;;;;7.88;3.40;;;10.90;92.50;;;;;;5032737;28;20037;-55
2022/01/27 12:24:56;;;;;;;10.00;4.38;;;10.90;92.60;;;;;;5032599;28;20124;-56
2022/01/27 12:27:23;;;;;;;4.40;2.92;;;10.90;92.70;;;;;;5032520;28;20041;-56
2022/01/27 12:30:10;;;;;;;5.72;3.30;;;10.90;92.80;;;;;;5032511;28;20061;-54
2022/01/27 12:32:37;;;;;;;6.55;3.20;;;10.90;92.70;;;;;;5031738;28;20120;-58
2022/01/27 12:35:04;;;;;;;6.80;3.30;;;10.90;92.70;;;;;;5031146;28;20046;-54
2022/01/27 12:37:32;;;;;;;4.60;3.17;;;10.90;92.80;;;;;;5031727;28;20048;-55
2022/01/27 12:40:00;;;;;;;6.15;3.25;;;11.00;92.90;;;;;;5032514;28;20092;-55
2022/01/27 12:42:35;;;;;;;6.68;3.53;;;11.00;92.90;;;;;;5031298;28;20420;-57
2022/01/27 12:45:03;;;;;;;8.15;3.78;;;10.90;93.20;;;;;;5032594;28;20140;-54
2022/01/27 12:47:30;;;;;;;5.97;3.47;;;10.90;93.40;;;;;;5031514;28;20042;-57
2022/01/27 12:50:07;;;;;;;7.05;3.88;;;10.90;93.50;;;;;;5032809;28;20128;-57
2022/01/27 12:52:43;;;;;;;6.18;4.00;;;10.90;93.60;;;;;;5031850;28;20045;-57
2022/01/27 12:55:10;;;;;;;5.20;3.67;;;10.90;93.70;;;;;;5032981;28;20044;-55
2022/01/27 12:57:44;;;;;;;5.82;3.88;;;11.00;93.80;;;;;;5031851;28;20041;-58
2022/01/27 13:00:12;;;;;;;7.72;4.03;;;11.00;93.80;;;;;;5031422;28;20126;-54
2022/01/27 13:02:41;;;;;;;7.35;4.00;;;11.10;93.70;;;;;;5032639;28;20046;-58
2022/01/27 13:05:08;;;;;;;7.32;4.75;;;11.10;93.50;;;;;;5030602;28;20033;-56
2022/01/27 13:07:39;;;;;;;8.40;4.95;;;11.20;93.40;;;;;;5032579;28;20480;-56
2022/01/27 13:10:07;;;;;;;10.88;4.78;;;11.20;93.40;;;;;;5031882;28;20400;-54
2022/01/27 13:12:42;;;;;;;6.68;4.57;;;11.20;93.30;;;;;;5031106;28;20462;-57
2022/01/27 13:15:14;;;;;;;5.35;3.85;;;11.20;93.20;;;;;;5031757;28;20117;-57
2022/01/27 13:20:12;;;;;;;5.97;3.50;;;11.30;93.20;;;;;;5035464;28;20057;-54
2022/01/27 13:22:39;;;;;;;8.07;4.05;;;11.30;93.30;;;;;;5035781;28;20495;-57
2022/01/27 13:25:06;;;;;;;5.20;3.53;;;11.20;93.30;;;;;;5036048;28;20041;-57
2022/01/27 13:27:33;;;;;;;4.90;3.40;;;11.20;93.30;;;;;;5035089;28;20129;-56
2022/01/27 13:30:00;;;;;;;5.97;3.60;;;11.20;93.40;;;;;;5035649;28;20069;-57
2022/01/27 13:32:27;;;;;;;4.93;3.30;;;11.10;93.50;;;;;;5035090;28;20091;-56
2022/01/27 13:34:54;;;;;;;5.80;3.83;;;11.10;93.60;;;;;;5035776;28;20095;-58
2022/01/27 13:37:21;;;;;;;5.47;3.63;;;11.00;93.70;;;;;;5035153;28;20052;-58
2022/01/27 13:42:16;;;;;;;4.22;3.30;;;11.00;94.00;;;;;;5034848;28;20033;-57
2022/01/27 13:44:43;;;;;;;4.43;3.75;;;11.00;94.00;;;;;;5029332;28;20511;-58
2022/01/27 13:47:10;;;;;;;5.13;3.65;;;11.10;94.00;;;;;;5028306;28;20991;-57
2022/01/27 13:49:37;;;;;;;7.20;3.38;;;11.10;93.90;;;;;;5032849;28;20029;-56
2022/01/27 13:52:04;;;;;;;5.63;3.65;;;11.20;93.80;;;;;;5034534;28;20071;-57
2022/01/27 13:54:30;;;;;;;4.60;3.70;;;11.30;93.70;;;;;;5034661;28;20041;-55
2022/01/27 13:56:57;;;;;;;6.05;3.67;;;11.40;93.40;;;;;;5034089;28;20041;-57
2022/01/27 13:59:29;;;;;;;4.07;3.40;;;11.50;93.20;;;;;;5032405;28;20041;-56
2022/01/27 14:01:55;;;;;;;4.70;2.97;;;11.50;93.10;;;;;;5033143;28;20160;-57
2022/01/27 14:04:22;;;;;;;4.30;3.38;;;11.50;92.50;;;;;;5035314;28;20511;-55
2022/01/27 14:06:49;;;;;;;4.25;2.83;;;11.60;92.60;;;;;;5034751;28;20492;-56
2022/01/27 14:09:16;;;;;;;5.32;3.25;;;11.70;92.50;;;;;;5034039;28;20099;-56
2022/01/27 14:11:43;;;;;;;3.30;2.83;;;11.70;92.50;;;;;;5034877;28;20049;-54
2022/01/27 14:14:10;;;;;;;6.15;2.80;;;11.70;92.30;;;;;;5034994;28;20452;-59
2022/01/27 14:16:37;;;;;;;4.07;2.78;;;11.70;92.10;;;;;;5033989;28;20073;-54
2022/01/27 14:19:04;;;;;;;3.65;2.75;;;11.70;92.10;;;;;;5033933;28;20042;-55
2022/01/27 14:21:31;;;;;;;3.95;2.72;;;11.80;92.10;;;;;;5034077;28;20064;-56
2022/01/27 14:24:22;;;;;;;5.38;3.08;;;11.90;91.80;;;;;;5034769;28;20041;-56
2022/01/27 14:26:49;;;;;;;5.03;3.00;;;11.80;91.60;;;;;;5034202;28;20548;-55
2022/01/27 14:29:16;;;;;;;5.65;3.40;;;11.80;91.80;;;;;;5034550;28;20042;-56
2022/01/27 14:31:42;;;;;;;5.30;3.00;;;11.80;91.80;;;;;;5034403;28;20077;-58
2022/01/27 14:34:09;;;;;;;5.20;2.45;;;11.80;91.60;;;;;;5033756;28;20076;-56
2022/01/27 14:36:40;;;;;;;4.63;2.20;;;11.70;90.30;;;;;;5034292;28;20073;-58
2022/01/27 14:39:07;;;;;;;7.35;2.15;;;11.50;87.70;;;;;;5034327;28;20053;-55
2022/01/27 14:41:34;;;;;;;8.38;3.03;;;11.50;87.80;;;;;;5032210;28;20044;-55
2022/01/27 14:44:01;;;;;;;6.63;2.65;;;11.40;88.20;;;;;;5034281;28;20045;-57
2022/01/27 14:46:40;;;;;;;6.68;2.35;;;11.40;88.10;;;;;;5032266;28;20033;-58
2022/01/27 14:49:09;;;;;;;6.53;2.35;;;11.40;87.60;;;;;;5034240;28;20108;-58
2022/01/27 14:51:36;;;;;;;8.93;2.70;;;11.30;87.60;;;;;;5034422;28;20045;-53
2022/01/27 14:54:03;;;;;;;6.25;2.45;;;11.30;88.10;;;;;;5033397;28;20076;-58
2022/01/27 14:56:32;;;;;;;7.30;2.72;;;11.30;88.50;;;;;;5034183;28;20128;-57
2022/01/27 14:58:58;;;;;;;7.18;2.92;;;11.20;88.40;;;;;;5033222;28;20103;-55
2022/01/27 15:01:25;;;;;;;5.43;2.28;;;11.20;88.10;;;;;;5033911;28;20045;-56
2022/01/27 15:03:52;;;;;;;5.88;2.70;;;11.20;88.30;;;;;;5033926;28;20045;-55
2022/01/27 15:06:19;;;;;;;6.80;2.50;;;11.20;87.90;;;;;;5033840;28;20057;-53
2022/01/27 15:08:46;;;;;;;6.97;2.90;;;11.20;87.70;;;;;;5031546;28;20132;-52
2022/01/27 15:11:13;;;;;;;7.03;2.78;;;11.20;88.10;;;;;;5033660;28;20042;-55
2022/01/27 15:13:45;;;;;;;7.30;2.95;;;11.20;88.00;;;;;;5033618;28;20128;-57
2022/01/27 15:19:12;;;;;;;6.97;2.50;;;11.20;87.80;;;;;;5033626;28;20073;-52
2022/01/27 15:21:39;;;;;;;6.20;2.00;;;11.20;88.10;;;;;;5032610;28;20064;-57
2022/01/27 15:24:06;;;;;;;6.80;2.17;;;11.20;82.10;;;;;;5033482;28;20041;-56
2022/01/27 15:26:33;;;;;;;7.28;1.20;;;11.20;80.30;;;;;;5033121;28;20124;-56
2022/01/27 15:28:59;;;;;;;5.88;1.80;;;11.20;79.60;;;;;;5033548;28;20519;-56
2022/01/27 15:31:26;;;;;;;5.15;1.65;;;11.20;79.60;;;;;;5033341;28;20057;-59
2022/01/27 15:33:53;;;;;;;8.10;1.42;;;11.10;79.30;;;;;;5032633;28;20060;-56
2022/01/27 15:36:22;;;;;;;8.80;2.00;;;11.10;78.70;;;;;;5033561;28;20064;-59
2022/01/27 15:39:09;;;;;;;10.90;2.15;;;11.10;78.40;;;;;;5033274;28;20046;-57
2022/01/27 15:41:36;;;;;;;7.28;1.90;;;11.10;79.10;;;;;;5032476;28;20037;-52
2022/01/27 15:44:02;;;;;;;7.28;1.70;;;11.00;79.00;;;;;;5033537;28;20038;-54
2022/01/27 15:46:30;;;;;;;5.72;1.88;;;11.00;79.30;;;;;;5033374;28;20042;-54
2022/01/27 15:48:56;;;;;;;4.95;2.20;;;11.00;78.00;;;;;;5032003;28;20053;-55
2022/01/27 15:51:23;;;;;;;7.90;1.92;;;11.00;77.90;;;;;;5033155;28;20040;-58
2022/01/27 15:53:50;;;;;;;10.68;2.58;;;10.90;78.20;;;;;;5033018;28;20045;-58
2022/01/27 15:56:17;;;;;;;8.55;2.53;;;10.90;77.40;;;;;;5033871;28;20382;-56
2022/01/27 15:58:44;;;;;;;6.32;2.35;;;10.90;78.50;;;;;;5032944;28;20107;-56
2022/01/27 16:01:10;;;;;;;8.40;2.83;;;10.80;78.00;;;;;;5032495;28;20041;-59
2022/01/27 16:03:38;;;;;;;10.48;2.05;;;10.80;78.20;;;;;;5031866;28;20071;-54
2022/01/27 16:06:04;;;;;;;9.68;2.53;;;10.70;77.60;;;;;;5031509;28;20091;-56
2022/01/27 16:08:31;;;;;;;9.50;3.13;;;10.70;77.60;;;;;;5031880;28;20485;-53
2022/01/27 16:10:58;;;;;;;10.63;3.50;;;10.70;78.00;;;;;;5031513;28;20396;-54
2022/01/27 16:13:25;;;;;;;7.60;3.35;;;10.70;78.50;;;;;;5033407;28;20103;-56
2022/01/27 16:15:52;;;;;;;14.43;3.72;;;10.60;78.00;;;;;;5032422;28;20551;-55
2022/01/27 16:18:19;;;;;;;6.63;2.00;;;10.60;77.50;;;;;;5032285;28;20068;-57
2022/01/27 16:20:46;;;;;;;6.60;2.10;;;10.60;76.50;;;;;;5031668;28;20049;-59
2022/01/27 16:23:13;;;;;;;9.35;2.40;;;10.60;76.70;;;;;;5032360;28;20041;-57
2022/01/27 16:25:40;;;;;;;9.27;2.15;;;10.50;76.60;;;;;;5032447;28;20046;-56
2022/01/27 16:28:07;;;;;;;15.40;3.30;;;10.50;75.90;;;;;;5032351;28;20045;-56
2022/01/27 16:30:34;;;;;;;14.82;3.78;;;10.40;75.10;;;;;;5031067;28;20107;-58
2022/01/27 16:33:01;;;;;;;7.75;2.17;;;10.40;75.10;;;;;;5032821;28;20528;-56
2022/01/27 16:35:27;;;;;;;7.07;2.00;;;10.40;74.90;;;;;;5031055;28;20037;-56
2022/01/27 16:37:55;;;;;;;7.20;2.00;;;10.30;74.20;;;;;;5032323;28;20049;-55
2022/01/27 16:40:21;;;;;;;9.35;2.03;;;10.30;73.90;;;;;;5032550;28;20040;-55
2022/01/27 16:42:48;;;;;;;7.28;2.05;;;10.30;74.30;;;;;;5032234;28;20485;-52
2022/01/27 16:45:15;;;;;;;6.10;2.05;;;10.30;73.90;;;;;;5032162;28;20037;-54
2022/01/27 16:47:42;;;;;;;6.65;1.70;;;10.20;73.40;;;;;;5032193;28;20034;-55
2022/01/27 16:50:09;;;;;;;9.85;1.98;;;10.20;72.60;;;;;;5032080;28;20038;-56
2022/01/27 16:52:35;;;;;;;8.73;2.45;;;10.20;72.40;;;;;;5034025;28;20044;-55
2022/01/27 16:55:02;;;;;;;9.95;2.88;;;10.20;72.30;;;;;;5035698;28;20128;-58
2022/01/27 16:57:29;;;;;;;11.38;2.33;;;10.10;72.90;;;;;;5036128;28;20418;-58
2022/01/27 16:59:56;;;;;;;10.70;2.20;;;10.10;72.30;;;;;;5036103;28;20101;-57
2022/01/27 17:02:23;;;;;;;10.50;2.15;;;10.10;72.70;;;;;;5036043;28;20063;-55
2022/01/27 17:04:50;;;;;;;7.10;2.50;;;10.10;72.50;;;;;;5036036;28;20137;-52
2022/01/27 17:07:17;;;;;;;9.73;2.28;;;10.10;72.70;;;;;;5039950;28;20049;-53
2022/01/27 17:09:44;;;;;;;12.25;2.58;;;10.00;72.60;;;;;;5035694;28;20065;-58
2022/01/27 17:12:11;;;;;;;8.43;2.35;;;10.00;72.60;;;;;;5029593;28;20041;-54
2022/01/27 17:14:37;;;;;;;6.25;2.25;;;9.90;72.80;;;;;;5029520;28;20060;-53
2022/01/27 17:17:04;;;;;;;9.60;2.47;;;9.90;72.70;;;;;;5035342;28;20043;-56
2022/01/27 17:19:31;;;;;;;9.27;2.25;;;9.90;72.90;;;;;;5036131;28;20513;-55
2022/01/27 17:22:02;;;;;;;8.50;2.45;;;9.90;73.30;;;;;;5035546;28;20052;-51
2022/01/27 17:24:29;;;;;;;9.25;2.40;;;9.80;73.10;;;;;;5035669;28;20408;-56
2022/01/27 17:26:55;;;;;;;11.52;2.88;;;9.80;73.40;;;;;;5032471;28;20042;-55
2022/01/27 17:29:22;;;;;;;9.02;2.40;;;9.80;73.80;;;;;;5029223;28;20057;-56
2022/01/27 17:31:49;;;;;;;10.88;2.42;;;9.70;73.80;;;;;;5028196;28;20049;-56
2022/01/27 17:34:16;;;;;;;8.73;2.50;;;9.60;74.40;;;;;;5035556;28;20191;-54
2022/01/27 17:36:43;;;;;;;8.80;3.40;;;9.60;73.90;;;;;;5035594;28;20048;-55
2022/01/27 17:39:10;;;;;;;8.05;2.10;;;9.60;74.30;;;;;;5035359;28;20128;-60
2022/01/27 17:41:39;;;;;;;7.43;2.30;;;9.60;74.20;;;;;;5035226;28;20397;-55
2022/01/27 17:44:14;;;;;;;10.13;2.80;;;9.50;74.40;;;;;;5028797;28;20076;-54
2022/01/27 17:46:41;;;;;;;9.38;2.47;;;9.50;74.90;;;;;;5035306;28;20124;-60
2022/01/27 17:49:08;;;;;;;4.93;2.10;;;9.50;74.90;;;;;;5035151;28;20047;-55
2022/01/27 17:51:36;;;;;;;6.53;2.47;;;9.40;75.00;;;;;;5035231;28;20393;-56
2022/01/27 17:54:03;;;;;;;15.13;4.18;;;9.50;75.10;;;;;;5035050;28;20037;-56
2022/01/27 17:56:29;;;;;;;10.82;3.17;;;9.40;75.00;;;;;;5035141;28;20045;-56
2022/01/27 17:58:56;;;;;;;12.80;4.38;;;9.40;74.90;;;;;;5035182;28;20045;-56
2022/01/27 18:01:23;;;;;;;11.20;4.20;;;9.40;74.80;;;;;;5034931;28;20498;-57
2022/01/27 18:03:51;;;;;;;10.98;3.95;;;9.40;75.00;;;;;;5034336;28;20492;-59
2022/01/27 18:06:18;;;;;;;12.38;3.15;;;9.30;75.10;;;;;;5034877;28;20489;-59
2022/01/27 18:08:45;;;;;;;11.55;3.10;;;9.40;75.90;;;;;;5034964;28;20042;-58
2022/01/27 18:11:13;;;;;;;9.32;2.97;;;9.30;74.70;;;;;;5034900;28;20114;-57
2022/01/27 18:13:40;;;;;;;7.15;2.42;;;9.30;74.80;;;;;;5034831;28;20053;-56
2022/01/27 18:16:07;;;;;;;8.50;2.17;;;9.30;74.80;;;;;;5034913;28;20041;-56
2022/01/27 18:18:33;;;;;;;8.15;2.70;;;9.30;74.30;;;;;;5034065;28;20045;-57
2022/01/27 18:21:02;;;;;;;6.63;2.80;;;9.20;74.60;;;;;;5035093;28;20045;-52
2022/01/27 18:23:29;;;;;;;10.57;3.25;;;9.20;75.00;;;;;;5028452;28;20034;-55
2022/01/27 18:25:56;;;;;;;11.23;2.75;;;9.10;75.30;;;;;;5034973;28;20053;-54
2022/01/27 18:28:23;;;;;;;10.95;3.08;;;9.10;74.80;;;;;;5028509;28;20037;-50
2022/01/27 18:30:50;;;;;;;13.88;3.47;;;9.10;74.80;;;;;;5027477;28;20500;-55
2022/01/27 18:33:16;;;;;;;10.38;2.83;;;9.10;74.90;;;;;;5034630;28;20076;-56
2022/01/27 18:35:43;;;;;;;10.18;2.60;;;9.10;75.00;;;;;;5034719;28;20048;-56
2022/01/27 18:38:10;;;;;;;8.50;2.97;;;9.10;74.80;;;;;;5034660;28;20050;-57
2022/01/27 18:40:40;;;;;;;11.93;3.80;;;9.00;74.90;;;;;;5034730;28;20048;-57
2022/01/27 18:43:07;;;;;;;11.68;3.72;;;9.00;74.70;;;;;;5034534;28;20063;-58
2022/01/27 18:45:34;;;;;;;13.32;3.50;;;9.00;75.00;;;;;;5034000;28;20045;-56
2022/01/27 18:48:02;;;;;;;9.43;3.28;;;9.00;75.00;;;;;;5035128;28;20037;-57
2022/01/27 18:50:28;;;;;;;15.52;4.40;;;8.90;75.10;;;;;;5036224;28;20496;-56
2022/01/27 18:52:55;;;;;;;9.65;2.80;;;8.90;75.00;;;;;;5036047;28;20048;-56
2022/01/27 18:55:22;;;;;;;13.43;4.32;;;8.90;74.80;;;;;;5035911;28;20388;-58
2022/01/27 18:57:49;;;;;;;11.80;4.38;;;8.90;75.00;;;;;;5035489;28;20050;-57
2022/01/27 19:00:16;;;;;;;10.57;3.42;;;8.90;75.30;;;;;;5034398;28;20045;-59
2022/01/27 19:02:42;;;;;;;11.93;3.50;;;8.90;75.60;;;;;;5033047;28;20069;-56
2022/01/27 19:05:10;;;;;;;13.63;3.72;;;8.90;75.60;;;;;;5034613;28;20059;-56
2022/01/27 19:07:37;;;;;;;18.33;4.05;;;8.80;75.60;;;;;;5034438;28;20483;-56
2022/01/27 19:10:03;;;;;;;6.80;3.28;;;8.80;75.60;;;;;;5032992;28;20408;-59
2022/01/27 19:12:30;;;;;;;11.80;4.00;;;8.80;75.80;;;;;;5033626;28;20057;-58
2022/01/27 19:14:57;;;;;;;15.40;4.32;;;8.70;75.90;;;;;;5033546;28;20444;-60
2022/01/27 19:17:24;;;;;;;11.95;4.22;;;8.80;75.90;;;;;;5034281;28;20037;-58
2022/01/27 19:19:52;;;;;;;14.52;3.97;;;8.70;76.10;;;;;;5033950;28;20041;-56
2022/01/27 19:22:19;;;;;;;12.88;3.30;;;8.70;76.30;;;;;;5033961;28;20088;-60
2022/01/27 19:24:46;;;;;;;10.30;3.35;;;8.60;76.20;;;;;;5033734;28;20041;-60
2022/01/27 19:27:15;;;;;;;11.77;3.30;;;8.60;76.50;;;;;;5033917;28;20511;-56
2022/01/27 19:29:46;;;;;;;10.40;3.60;;;8.60;76.70;;;;;;5033517;28;20037;-53
2022/01/27 19:32:18;;;;;;;9.23;4.28;;;8.60;76.50;;;;;;5031655;28;20044;-56
2022/01/27 19:34:45;;;;;;;10.00;4.32;;;8.60;76.80;;;;;;5032923;28;20041;-58
2022/01/27 19:37:12;;;;;;;10.55;4.68;;;8.60;77.00;;;;;;5032981;28;20477;-55
2022/01/27 19:39:39;;;;;;;11.68;5.18;;;8.50;77.10;;;;;;5033315;28;20037;-56
2022/01/27 19:42:06;;;;;;;12.57;5.05;;;8.50;77.20;;;;;;5033272;28;20071;-56
2022/01/27 19:44:53;;;;;;;11.73;4.03;;;8.40;77.30;;;;;;5032952;28;20049;-57
2022/01/27 19:47:20;;;;;;;11.65;3.75;;;8.50;77.00;;;;;;5033140;28;20037;-55
2022/01/27 19:49:49;;;;;;;9.43;4.07;;;8.50;77.10;;;;;;5032975;28;20129;-56
2022/01/27 19:52:20;;;;;;;9.90;4.13;;;8.40;77.50;;;;;;5032633;28;20049;-54
2022/01/27 19:54:47;;;;;;;9.90;4.85;;;8.40;77.50;;;;;;5032941;28;20477;-58
2022/01/27 19:57:14;;;;;;;12.32;5.57;;;8.40;77.80;;;;;;5032789;28;20045;-58
2022/01/27 19:59:41;;;;;;;11.63;3.95;;;8.30;77.80;;;;;;5032837;28;20044;-58
2022/01/27 20:02:08;;;;;;;13.52;3.55;;;8.30;78.10;;;;;;5032825;28;20037;-56
2022/01/27 20:04:36;;;;;;;9.35;3.30;;;8.30;78.20;;;;;;5032778;28;20041;-56
2022/01/27 20:07:03;;;;;;;11.07;3.38;;;8.20;78.30;;;;;;5032488;28;20041;-58
2022/01/27 20:09:30;;;;;;;8.77;2.92;;;8.20;78.80;;;;;;5032717;28;20042;-59
2022/01/27 20:11:57;;;;;;;9.15;3.20;;;8.10;79.10;;;;;;5032626;28;20124;-56
2022/01/27 20:14:24;;;;;;;13.35;3.63;;;8.00;79.50;;;;;;5031020;28;20041;-58
2022/01/27 20:16:50;;;;;;;11.15;3.25;;;7.90;80.10;;;;;;5032988;28;20373;-55
2022/01/27 20:19:20;;;;;;;9.88;2.97;;;7.80;80.20;;;;;;5032758;28;20037;-58
2022/01/27 20:21:47;;;;;;;12.68;3.33;;;7.70;80.60;;;;;;5033787;28;20037;-55
2022/01/27 20:24:14;;;;;;;8.52;3.17;;;7.70;80.90;;;;;;5036075;28;20037;-55
2022/01/27 20:26:43;;;;;;;9.30;3.63;;;7.60;81.30;;;;;;5032019;28;20045;-54
2022/01/27 20:29:10;;;;;;;9.05;3.25;;;7.50;81.60;;;;;;5032779;28;20037;-57
2022/01/27 20:31:37;;;;;;;14.32;4.75;;;7.50;81.80;;;;;;5032524;28;20559;-56
2022/01/27 20:34:04;;;;;;;9.02;4.00;;;7.50;82.00;;;;;;5031641;28;20044;-55
2022/01/27 20:36:31;;;;;;;14.32;5.10;;;7.40;82.30;;;;;;5032308;28;20499;-56
2022/01/27 20:38:58;;;;;;;14.98;6.35;;;7.40;82.40;;;;;;5031991;28;20049;-56
2022/01/27 20:41:25;;;;;;;16.15;6.13;;;7.30;82.60;;;;;;5032621;28;20124;-55
2022/01/27 20:43:52;;;;;;;14.07;6.53;;;7.20;83.10;;;;;;5032376;28;20052;-59
2022/01/27 20:46:19;;;;;;;11.23;5.70;;;7.20;83.30;;;;;;5031575;28;20045;-59
2022/01/27 20:48:46;;;;;;;13.75;4.80;;;7.20;83.40;;;;;;5032325;28;20087;-57
2022/01/27 20:51:13;;;;;;;10.20;4.50;;;7.20;83.70;;;;;;5031849;28;20420;-59
2022/01/27 20:53:46;;;;;;;15.82;5.00;;;7.10;83.90;;;;;;5032108;28;20041;-56
2022/01/27 20:56:19;;;;;;;13.18;4.90;;;7.10;84.00;;;;;;5031586;28;20033;-56
2022/01/27 20:58:46;;;;;;;11.32;5.03;;;7.10;84.20;;;;;;5032204;28;20046;-55
2022/01/27 21:01:13;;;;;;;11.40;4.90;;;7.00;84.40;;;;;;5031456;28;20107;-58
2022/01/27 21:03:40;;;;;;;11.70;4.65;;;6.90;84.60;;;;;;5032083;28;20042;-56
2022/01/27 21:06:06;;;;;;;14.55;5.00;;;6.90;85.00;;;;;;5032099;28;20042;-51
2022/01/27 21:08:33;;;;;;;11.32;5.57;;;6.80;85.30;;;;;;5030209;28;20045;-58
2022/01/27 21:11:00;;;;;;;13.25;4.78;;;6.80;85.50;;;;;;5032156;28;20057;-58
2022/01/27 21:13:27;;;;;;;16.90;5.30;;;6.70;85.80;;;;;;5031342;28;20556;-55
2022/01/27 21:15:54;;;;;;;13.57;5.50;;;6.60;86.20;;;;;;5030829;28;20443;-54
2022/01/27 21:18:20;;;;;;;10.02;5.63;;;6.60;86.30;;;;;;5032221;28;20042;-55
2022/01/27 21:20:47;;;;;;;13.88;6.03;;;6.50;86.50;;;;;;5030167;28;20485;-55
2022/01/27 21:23:14;;;;;;;13.02;6.57;;;6.40;86.70;;;;;;5032461;28;20049;-59
2022/01/27 21:25:41;;;;;;;14.57;6.22;;;6.40;87.40;;;;;;5031973;28;20034;-58
2022/01/27 21:28:07;;;;;;;16.23;7.78;;;6.30;87.50;;;;;;5031275;28;20489;-59
2022/01/27 21:30:34;;;;;;;16.67;6.30;;;6.20;87.90;;;;;;5032396;28;20049;-52
2022/01/27 21:33:02;;;;;;;12.10;5.38;;;6.20;87.80;;;;;;5031519;28;20043;-55
2022/01/27 21:35:30;;;;;;;10.55;4.40;;;6.20;87.90;;;;;;5032333;28;20050;-56
2022/01/27 21:37:57;;;;;;;12.23;4.97;;;6.10;87.90;;;;;;5031835;28;20537;-58
2022/01/27 21:40:24;;;;;;;12.10;4.97;;;6.10;87.80;;;;;;5036642;28;20069;-56